createdAt,value
2022-09-17T00:00:25.893Z,990.5
2022-09-17T00:01:27.121Z,990.5
2022-09-17T00:02:28.822Z,990.4
2022-09-17T00:03:29.810Z,990.4
2022-09-17T00:04:30.772Z,990.4
2022-09-17T00:05:31.770Z,990.4
2022-09-17T00:06:32.894Z,990.4
2022-09-17T00:07:33.770Z,990.4
2022-09-17T00:08:34.733Z,990.4
2022-09-17T00:09:35.876Z,990.4
2022-09-17T00:10:36.790Z,990.4
2022-09-17T00:11:37.791Z,990.4
2022-09-17T00:12:38.791Z,990.3
2022-09-17T00:13:39.791Z,990.3
2022-09-17T00:14:40.810Z,990.3
2022-09-17T00:15:41.778Z,990.3
2022-09-17T00:16:42.790Z,990.2
2022-09-17T00:17:43.878Z,990.3
2022-09-17T00:18:44.771Z,990.3
2022-09-17T00:19:45.819Z,990.3
2022-09-17T00:20:46.789Z,990.3
2022-09-17T00:21:47.961Z,990.3
2022-09-17T00:22:49.971Z,990.3
2022-09-17T00:23:52.790Z,990.3
2022-09-17T00:24:53.955Z,990.3
2022-09-17T00:25:54.758Z,990.2
2022-09-17T00:26:55.838Z,990.2
2022-09-17T00:27:56.799Z,990.2
2022-09-17T00:28:57.838Z,990.2
2022-09-17T00:29:59.078Z,990.3
2022-09-17T00:31:00.975Z,990.3
2022-09-17T00:32:02.871Z,990.3
2022-09-17T00:33:04.810Z,990.2
2022-09-17T00:34:06.792Z,990.3
2022-09-17T00:35:07.910Z,990.3
2022-09-17T00:36:08.750Z,990.3
2022-09-17T00:37:09.791Z,990.3
2022-09-17T00:38:10.810Z,990.2
2022-09-17T00:39:11.743Z,990.4
2022-09-17T00:40:12.996Z,990.3
2022-09-17T00:41:13.744Z,990.3
2022-09-17T00:42:14.786Z,990.3
2022-09-17T00:43:15.779Z,990.3
2022-09-17T00:44:16.858Z,990.3
2022-09-17T00:45:17.878Z,990.3
2022-09-17T00:46:19.895Z,990.3
2022-09-17T00:47:20.878Z,990.2
2022-09-17T00:48:21.811Z,990.2
2022-09-17T00:49:22.913Z,990.2
2022-09-17T00:50:23.762Z,990.3
2022-09-17T00:51:24.839Z,990.3
2022-09-17T00:52:25.870Z,990.3
2022-09-17T00:53:26.850Z,990.3
2022-09-17T00:54:27.927Z,990.2
2022-09-17T00:55:29.976Z,990.2
2022-09-17T00:56:31.798Z,990.2
2022-09-17T00:57:32.871Z,990.2
2022-09-17T00:58:37.879Z,990.2
2022-09-17T00:59:35.790Z,990.2
2022-09-17T01:04:02.858Z,990.2
2022-09-17T01:05:03.919Z,990.3
2022-09-17T01:06:06.122Z,990.2
2022-09-17T01:07:07.969Z,990.2
2022-09-17T01:08:09.874Z,990.2
2022-09-17T01:09:10.853Z,990.2
2022-09-17T01:10:11.813Z,990.2
2022-09-17T01:11:12.946Z,990.2
2022-09-17T01:12:13.773Z,990.2
2022-09-17T01:13:14.774Z,990.2
2022-09-17T01:14:15.834Z,990.2
2022-09-17T01:15:16.769Z,990.2
2022-09-17T01:16:17.797Z,990.2
2022-09-17T01:17:18.791Z,990.1
2022-09-17T01:18:19.814Z,990.1
2022-09-17T01:19:20.895Z,990.1
2022-09-17T01:20:21.833Z,990.1
2022-09-17T01:21:22.816Z,990.1
2022-09-17T01:22:23.833Z,990.1
2022-09-17T01:23:24.774Z,990.1
2022-09-17T01:24:25.821Z,990.2
2022-09-17T01:25:26.873Z,990.1
2022-09-17T01:26:27.868Z,990.1
2022-09-17T01:27:28.794Z,990.1
2022-09-17T01:28:29.816Z,990.1
2022-09-17T01:29:31.833Z,990.1
2022-09-17T01:30:33.053Z,990.2
2022-09-17T01:31:35.064Z,990.2
2022-09-17T01:32:36.893Z,990.1
2022-09-17T01:33:37.854Z,989.5
2022-09-17T01:34:38.966Z,989.9
2022-09-17T01:35:41.083Z,990
2022-09-17T01:36:42.933Z,990
2022-09-17T01:37:44.842Z,990
2022-09-17T01:38:45.945Z,990.1
2022-09-17T01:39:46.838Z,990
2022-09-17T01:40:47.894Z,990
2022-09-17T01:41:48.936Z,990
2022-09-17T01:42:49.834Z,990
2022-09-17T01:43:50.921Z,990
2022-09-17T01:44:52.814Z,990.1
2022-09-17T01:45:53.961Z,990
2022-09-17T01:46:54.861Z,990.1
2022-09-17T01:47:55.788Z,990
2022-09-17T01:48:57.053Z,990
2022-09-17T01:49:59.014Z,989.5
2022-09-17T01:51:00.974Z,989.9
2022-09-17T01:52:02.895Z,990
2022-09-17T01:53:03.875Z,990.1
2022-09-17T01:54:04.933Z,990.1
2022-09-17T01:55:05.854Z,990
2022-09-17T01:56:06.854Z,990
2022-09-17T01:57:07.978Z,990
2022-09-17T01:58:08.833Z,990
2022-09-17T01:59:09.953Z,990
2022-09-17T02:00:10.913Z,990
2022-09-17T02:01:12.048Z,990
2022-09-17T02:02:14.024Z,990
2022-09-17T02:03:15.934Z,990.1
2022-09-17T02:04:16.873Z,990
2022-09-17T02:05:23.874Z,990
2022-09-17T02:06:24.817Z,990
2022-09-17T02:07:25.907Z,990
2022-09-17T02:08:26.914Z,990
2022-09-17T02:09:27.813Z,989.9
2022-09-17T02:10:28.853Z,989.9
2022-09-17T02:11:29.836Z,989.9
2022-09-17T02:12:30.931Z,989.9
2022-09-17T02:13:31.813Z,990
2022-09-17T02:14:32.813Z,989.9
2022-09-17T02:15:33.793Z,990
2022-09-17T02:16:34.834Z,990
2022-09-17T02:17:35.874Z,990
2022-09-17T02:18:36.994Z,990
2022-09-17T02:19:38.913Z,990
2022-09-17T02:20:39.833Z,990
2022-09-17T02:21:40.898Z,990
2022-09-17T02:22:41.874Z,990
2022-09-17T02:23:42.893Z,990
2022-09-17T02:24:43.913Z,990.1
2022-09-17T02:25:45.093Z,990.1
2022-09-17T02:26:46.973Z,990.1
2022-09-17T02:27:48.039Z,990.1
2022-09-17T02:28:48.913Z,990
2022-09-17T02:29:49.835Z,990
2022-09-17T02:30:50.892Z,990
2022-09-17T02:31:51.988Z,990.1
2022-09-17T02:32:52.893Z,990.1
2022-09-17T02:33:53.913Z,990
2022-09-17T02:34:54.894Z,990.1
2022-09-17T02:35:55.876Z,990
2022-09-17T02:36:56.961Z,990
2022-09-17T02:37:57.893Z,990.2
2022-09-17T02:38:58.874Z,990
2022-09-17T02:39:59.969Z,990
2022-09-17T02:41:00.933Z,990.1
2022-09-17T02:42:02.895Z,989.7
2022-09-17T02:43:04.941Z,990
2022-09-17T02:44:05.933Z,990
2022-09-17T02:45:06.875Z,990
2022-09-17T02:46:08.006Z,990
2022-09-17T02:47:08.873Z,990
2022-09-17T02:48:09.852Z,989.9
2022-09-17T02:49:10.813Z,989.9
2022-09-17T02:50:12.933Z,990
2022-09-17T02:51:15.147Z,989.9
2022-09-17T02:52:16.833Z,990
2022-09-17T02:53:17.833Z,990
2022-09-17T02:54:18.893Z,990
2022-09-17T02:55:19.813Z,989.9
2022-09-17T02:56:20.874Z,989.9
2022-09-17T02:57:21.873Z,990
2022-09-17T02:58:22.998Z,989.9
2022-09-17T02:59:23.873Z,989.9
2022-09-17T03:00:24.873Z,989.9
2022-09-17T03:01:25.913Z,989.9
2022-09-17T03:02:26.987Z,989.9
2022-09-17T03:03:27.926Z,989.9
2022-09-17T03:04:28.873Z,989.9
2022-09-17T03:05:29.900Z,989.8
2022-09-17T03:06:30.918Z,989.9
2022-09-17T03:07:31.833Z,989.9
2022-09-17T03:08:32.893Z,989.9
2022-09-17T03:09:34.903Z,989.8
2022-09-17T03:10:36.917Z,989.8
2022-09-17T03:11:37.873Z,989.2
2022-09-17T03:12:38.914Z,989.7
2022-09-17T03:13:40.001Z,989.9
2022-09-17T03:14:40.885Z,989.9
2022-09-17T03:15:42.035Z,989.9
2022-09-17T03:16:43.940Z,989.9
2022-09-17T03:17:48.060Z,989.9
2022-09-17T03:18:47.355Z,989.9
2022-09-17T03:19:48.933Z,989.9
2022-09-17T03:20:50.913Z,989.9
2022-09-17T03:21:52.852Z,989.9
2022-09-17T03:22:53.913Z,989.9
2022-09-17T03:23:54.873Z,989.9
2022-09-17T03:24:55.933Z,990
2022-09-17T03:25:56.993Z,989.9
2022-09-17T03:26:57.930Z,990.1
2022-09-17T03:27:58.941Z,989.9
2022-09-17T03:29:00.189Z,990
2022-09-17T03:30:02.019Z,989.9
2022-09-17T03:31:03.957Z,989.9
2022-09-17T03:32:06.134Z,989.9
2022-09-17T03:33:08.014Z,989.9
2022-09-17T03:34:08.933Z,990
2022-09-17T03:35:09.892Z,990
2022-09-17T03:36:10.973Z,990
2022-09-17T03:37:11.893Z,990
2022-09-17T03:38:12.913Z,990
2022-09-17T03:39:13.934Z,990
2022-09-17T03:40:14.906Z,990
2022-09-17T03:41:15.874Z,990.1
2022-09-17T03:42:16.874Z,990
2022-09-17T03:43:17.894Z,990
2022-09-17T03:44:18.955Z,990
2022-09-17T03:45:19.938Z,989.9
2022-09-17T03:46:21.884Z,989.9
2022-09-17T03:47:22.901Z,989.9
2022-09-17T03:48:23.885Z,989.9
2022-09-17T03:49:24.837Z,989.9
2022-09-17T03:50:25.973Z,989.9
2022-09-17T03:51:26.984Z,990
2022-09-17T03:52:27.913Z,989.9
2022-09-17T03:53:28.926Z,989.9
2022-09-17T03:54:29.933Z,990
2022-09-17T03:55:30.899Z,989.9
2022-09-17T03:56:31.893Z,989.9
2022-09-17T03:57:32.865Z,989.9
2022-09-17T03:58:33.953Z,989.9
2022-09-17T03:59:36.069Z,989.9
2022-09-17T04:00:36.993Z,989.9
2022-09-17T04:01:39.084Z,989.9
2022-09-17T04:02:39.920Z,989.9
2022-09-17T04:03:40.993Z,989.8
2022-09-17T04:04:41.849Z,989.9
2022-09-17T04:05:42.893Z,989.8
2022-09-17T04:06:43.856Z,989.8
2022-09-17T04:07:44.867Z,989.8
2022-09-17T04:08:45.892Z,989.8
2022-09-17T04:09:46.910Z,989.9
2022-09-17T04:10:47.846Z,989.8
2022-09-17T04:11:48.936Z,989.8
2022-09-17T04:12:50.973Z,989.8
2022-09-17T04:13:51.892Z,989.7
2022-09-17T04:14:53.101Z,989.8
2022-09-17T04:15:54.903Z,989.8
2022-09-17T04:16:55.974Z,989.8
2022-09-17T04:17:58.013Z,989.8
2022-09-17T04:18:59.956Z,989.7
2022-09-17T04:20:00.954Z,989.1
2022-09-17T04:21:01.906Z,989.6
2022-09-17T04:22:02.970Z,989.7
2022-09-17T04:23:03.935Z,989.8
2022-09-17T04:24:04.856Z,989.8
2022-09-17T04:25:05.973Z,989.8
2022-09-17T04:26:06.894Z,989.8
2022-09-17T04:27:07.879Z,989.8
2022-09-17T04:28:08.913Z,989.8
2022-09-17T04:29:09.933Z,989.8
2022-09-17T04:30:11.117Z,989.9
2022-09-17T04:31:13.023Z,989.8
2022-09-17T04:32:14.027Z,989.8
2022-09-17T04:33:15.993Z,989.9
2022-09-17T04:34:16.933Z,989.9
2022-09-17T04:35:17.894Z,989.4
2022-09-17T04:36:18.913Z,989.7
2022-09-17T04:37:19.882Z,989.8
2022-09-17T04:38:20.893Z,989.9
2022-09-17T04:39:22.893Z,989.9
2022-09-17T04:40:23.851Z,989.9
2022-09-17T04:41:24.860Z,989.9
2022-09-17T04:42:25.975Z,989.8
2022-09-17T04:43:27.873Z,989.9
2022-09-17T04:44:28.914Z,989.9
2022-09-17T04:45:30.048Z,989.9
2022-09-17T04:46:31.031Z,989.9
2022-09-17T04:47:31.853Z,989.9
2022-09-17T04:48:32.894Z,989.9
2022-09-17T04:49:33.888Z,989.6
2022-09-17T04:50:34.917Z,989.9
2022-09-17T04:51:35.973Z,989.9
2022-09-17T04:52:37.033Z,989.9
2022-09-17T04:53:38.932Z,990
2022-09-17T04:54:39.913Z,989.9
2022-09-17T04:55:40.922Z,989.9
2022-09-17T04:56:41.953Z,989.9
2022-09-17T04:57:42.913Z,989.9
2022-09-17T04:58:43.918Z,989.9
2022-09-17T04:59:44.942Z,990
2022-09-17T05:00:46.158Z,990
2022-09-17T05:01:47.010Z,990
2022-09-17T05:02:47.973Z,989.9
2022-09-17T05:03:49.031Z,989.9
2022-09-17T05:04:50.014Z,990
2022-09-17T05:05:50.939Z,990
2022-09-17T05:06:51.913Z,989.9
2022-09-17T05:07:52.954Z,990
2022-09-17T05:08:53.952Z,990
2022-09-17T05:09:54.953Z,989.9
2022-09-17T05:10:55.953Z,989.9
2022-09-17T05:11:57.145Z,989.9
2022-09-17T05:12:59.093Z,989.6
2022-09-17T05:14:00.974Z,989.9
2022-09-17T05:15:01.992Z,989.8
2022-09-17T05:16:03.117Z,989.9
2022-09-17T05:17:03.975Z,989.9
2022-09-17T05:18:05.992Z,989.8
2022-09-17T05:19:07.953Z,989.9
2022-09-17T05:20:08.914Z,989.9
2022-09-17T05:21:09.930Z,989.9
2022-09-17T05:22:10.993Z,989.9
2022-09-17T05:23:13.013Z,989.9
2022-09-17T05:24:15.085Z,989.5
2022-09-17T05:25:17.240Z,989.8
2022-09-17T05:26:18.933Z,989.7
2022-09-17T05:27:19.952Z,989.8
2022-09-17T05:28:20.965Z,989.8
2022-09-17T05:29:21.953Z,989.8
2022-09-17T05:30:22.953Z,989.8
2022-09-17T05:31:24.099Z,989.8
2022-09-17T05:32:24.913Z,989.8
2022-09-17T05:33:25.873Z,989.8
2022-09-17T05:34:26.953Z,989.8
2022-09-17T05:35:27.902Z,989.8
2022-09-17T05:36:28.953Z,989.7
2022-09-17T05:37:30.993Z,989.8
2022-09-17T05:38:33.153Z,989.8
2022-09-17T05:39:34.934Z,989.8
2022-09-17T05:40:35.993Z,989.8
2022-09-17T05:41:36.933Z,989.8
2022-09-17T05:42:37.953Z,989.8
2022-09-17T05:43:38.913Z,989.8
2022-09-17T05:44:40.026Z,989.7
2022-09-17T05:45:41.283Z,989.7
2022-09-17T05:46:43.101Z,989.7
2022-09-17T05:47:45.301Z,989.8
2022-09-17T05:48:46.913Z,989.8
2022-09-17T05:49:47.953Z,989.8
2022-09-17T05:50:49.105Z,989.8
2022-09-17T05:51:51.212Z,989.8
2022-09-17T05:52:53.134Z,989.9
2022-09-17T05:53:55.069Z,989.9
2022-09-17T05:54:57.153Z,989.9
2022-09-17T05:55:59.051Z,989.9
2022-09-17T05:57:01.016Z,989.9
2022-09-17T05:58:01.973Z,989.9
2022-09-17T05:59:03.116Z,989.9
2022-09-17T06:00:05.213Z,989.9
2022-09-17T06:01:06.978Z,989.9
2022-09-17T06:02:08.102Z,989.9
2022-09-17T06:03:09.077Z,990
2022-09-17T06:04:09.974Z,989.9
2022-09-17T06:05:12.017Z,989.9
2022-09-17T06:06:13.010Z,989.9
2022-09-17T06:07:15.003Z,989.9
2022-09-17T06:08:17.037Z,989.9
2022-09-17T06:09:17.935Z,989.9
2022-09-17T06:10:19.033Z,989.9
2022-09-17T06:11:19.954Z,989.9
2022-09-17T06:12:21.093Z,989.9
2022-09-17T06:13:23.174Z,989.9
2022-09-17T06:14:25.521Z,989.9
2022-09-17T06:15:27.081Z,990
2022-09-17T06:16:28.016Z,990
2022-09-17T06:17:29.165Z,989.9
2022-09-17T06:18:31.056Z,990
2022-09-17T06:19:31.974Z,989.9
2022-09-17T06:20:33.077Z,990
2022-09-17T06:21:35.496Z,990
2022-09-17T06:22:37.015Z,990
2022-09-17T06:23:37.953Z,990
2022-09-17T06:24:39.114Z,990
2022-09-17T06:25:39.938Z,989.9
2022-09-17T06:26:40.953Z,990
2022-09-17T06:27:42.553Z,990
2022-09-17T06:28:44.042Z,990
2022-09-17T06:29:45.034Z,990.1
2022-09-17T06:30:47.015Z,990.1
2022-09-17T06:31:49.184Z,990.1
2022-09-17T06:32:51.275Z,990
2022-09-17T06:33:54.196Z,990.1
2022-09-17T06:34:55.155Z,990.1
2022-09-17T06:35:57.093Z,990.2
2022-09-17T06:36:59.222Z,990.2
2022-09-17T06:38:00.994Z,990.1
2022-09-17T06:39:02.176Z,990.2
2022-09-17T06:40:04.096Z,990.2
2022-09-17T06:41:05.002Z,990.2
2022-09-17T06:42:06.935Z,990.2
2022-09-17T06:43:08.013Z,990.2
2022-09-17T06:44:08.946Z,990.3
2022-09-17T06:45:13.310Z,990.3
2022-09-17T06:46:10.998Z,990.3
2022-09-17T06:47:12.002Z,990.3
2022-09-17T06:48:13.153Z,990.3
2022-09-17T06:49:15.054Z,990.3
2022-09-17T06:50:17.053Z,990.3
2022-09-17T06:51:18.016Z,990.3
2022-09-17T06:52:19.101Z,990.4
2022-09-17T06:53:21.183Z,990.4
2022-09-17T06:54:22.993Z,990.4
2022-09-17T06:55:23.954Z,990.4
2022-09-17T06:56:25.407Z,990.3
2022-09-17T06:57:26.982Z,990.3
2022-09-17T06:58:28.251Z,990.3
2022-09-17T06:59:30.452Z,990.4
2022-09-17T07:00:32.054Z,990.3
2022-09-17T07:01:33.016Z,990.3
2022-09-17T07:02:34.152Z,990.4
2022-09-17T07:03:36.351Z,990.5
2022-09-17T07:04:38.133Z,989.8
2022-09-17T07:05:40.414Z,990.3
2022-09-17T07:06:42.074Z,990.4
2022-09-17T07:07:44.221Z,990.4
2022-09-17T07:08:46.164Z,990.4
2022-09-17T07:09:48.213Z,990.4
2022-09-17T07:10:50.082Z,990.5
2022-09-17T07:11:51.343Z,990.7
2022-09-17T07:12:53.127Z,990.5
2022-09-17T07:13:55.534Z,990.5
2022-09-17T07:14:57.055Z,990.5
2022-09-17T07:15:59.057Z,990.6
2022-09-17T07:17:01.550Z,990.6
2022-09-17T07:18:03.134Z,990.6
2022-09-17T07:19:05.167Z,990.5
2022-09-17T07:20:07.034Z,990.5
2022-09-17T07:21:08.003Z,990.5
2022-09-17T07:22:08.959Z,990.5
2022-09-17T07:23:10.793Z,990.4
2022-09-17T07:24:12.034Z,990.4
2022-09-17T07:25:12.990Z,990.5
2022-09-17T07:26:14.133Z,990.5
2022-09-17T07:27:16.053Z,990.5
2022-09-17T07:28:18.073Z,990.5
2022-09-17T07:29:20.073Z,990.5
2022-09-17T07:30:22.034Z,990.6
2022-09-17T07:31:23.120Z,990.5
2022-09-17T07:32:24.139Z,990.6
2022-09-17T07:33:25.133Z,990.6
2022-09-17T07:34:27.113Z,990.6
2022-09-17T07:35:28.175Z,990.6
2022-09-17T07:36:30.169Z,990.6
2022-09-17T07:37:32.073Z,990.6
2022-09-17T07:38:32.988Z,990.6
2022-09-17T07:39:33.994Z,990.7
2022-09-17T07:40:35.099Z,990.7
2022-09-17T07:41:37.113Z,990.7
2022-09-17T07:42:39.003Z,990.8
2022-09-17T07:43:40.001Z,990.7
2022-09-17T07:44:41.021Z,990.8
2022-09-17T07:45:41.992Z,990.8
2022-09-17T07:46:43.128Z,990.8
2022-09-17T07:47:45.000Z,990.8
2022-09-17T07:48:45.953Z,990.8
2022-09-17T07:49:47.379Z,990.8
2022-09-17T07:50:49.114Z,990.8
2022-09-17T07:51:51.154Z,990.9
2022-09-17T07:52:53.133Z,990.9
2022-09-17T07:53:55.061Z,990.9
2022-09-17T07:54:56.036Z,990.9
2022-09-17T07:55:57.034Z,990.9
2022-09-17T07:56:58.054Z,990.9
2022-09-17T07:57:59.033Z,990.9
2022-09-17T07:59:00.100Z,991
2022-09-17T08:00:00.974Z,991
2022-09-17T08:01:02.033Z,991
2022-09-17T08:02:03.344Z,990.3
2022-09-17T08:03:05.047Z,990.8
2022-09-17T08:04:07.077Z,990.9
2022-09-17T08:05:09.252Z,991
2022-09-17T08:06:10.996Z,991
2022-09-17T08:07:13.094Z,990.9
2022-09-17T08:08:16.589Z,990.8
2022-09-17T08:09:16.158Z,990.9
2022-09-17T08:10:17.996Z,990.8
2022-09-17T08:11:32.732Z,990.8
2022-09-17T08:12:21.113Z,990.8
2022-09-17T08:13:23.193Z,990.9
2022-09-17T08:14:29.314Z,990.8
2022-09-17T08:15:25.960Z,990.8
2022-09-17T08:16:27.228Z,990.7
2022-09-17T08:17:29.024Z,990.8
2022-09-17T08:18:31.023Z,990.5
2022-09-17T08:19:31.990Z,990.8
2022-09-17T08:20:33.182Z,990.8
2022-09-17T08:21:34.036Z,990.8
2022-09-17T08:22:35.094Z,990.9
2022-09-17T08:23:37.193Z,990.9
2022-09-17T08:24:39.193Z,990.9
2022-09-17T08:25:41.041Z,990.9
2022-09-17T08:26:42.086Z,990.8
2022-09-17T08:27:44.233Z,990.9
2022-09-17T08:28:46.054Z,990.8
2022-09-17T08:29:47.014Z,990.8
2022-09-17T08:30:48.056Z,990.8
2022-09-17T08:31:49.080Z,990.9
2022-09-17T08:32:50.070Z,990.9
2022-09-17T08:33:51.033Z,990.9
2022-09-17T08:34:52.919Z,990.7
2022-09-17T08:35:53.277Z,990.8
2022-09-17T08:36:53.981Z,990.8
2022-09-17T08:37:55.048Z,990.8
2022-09-17T08:38:56.286Z,990.8
2022-09-17T08:39:58.153Z,990.9
2022-09-17T08:41:00.255Z,990.9
2022-09-17T08:42:02.322Z,990.9
2022-09-17T08:43:04.523Z,990.7
2022-09-17T08:44:06.093Z,990.7
2022-09-17T08:45:08.102Z,990.6
2022-09-17T08:46:10.158Z,990.5
2022-09-17T08:47:11.103Z,990.6
2022-09-17T08:48:12.285Z,990.6
2022-09-17T08:49:14.320Z,990.6
2022-09-17T08:50:16.215Z,990.6
2022-09-17T08:51:18.157Z,990.6
2022-09-17T08:52:19.234Z,990.6
2022-09-17T08:53:21.133Z,990.6
2022-09-17T08:54:23.125Z,990.6
2022-09-17T08:55:25.074Z,990.6
2022-09-17T08:56:27.141Z,990.5
2022-09-17T08:57:29.034Z,990.6
2022-09-17T08:58:30.073Z,990.6
2022-09-17T08:59:32.132Z,990.6
2022-09-17T09:00:32.998Z,990.6
2022-09-17T09:01:34.096Z,990.6
2022-09-17T09:02:35.163Z,990.6
2022-09-17T09:03:37.076Z,990.6
2022-09-17T09:04:38.023Z,990.6
2022-09-17T09:05:39.002Z,990.6
2022-09-17T09:06:40.178Z,990.3
2022-09-17T09:07:41.017Z,990.6
2022-09-17T09:08:42.033Z,990.7
2022-09-17T09:09:43.134Z,990.7
2022-09-17T09:10:45.143Z,990.7
2022-09-17T09:11:47.153Z,990.8
2022-09-17T09:12:49.081Z,990.8
2022-09-17T09:13:51.233Z,990.9
2022-09-17T09:14:53.076Z,990.8
2022-09-17T09:15:54.036Z,990.8
2022-09-17T09:16:55.115Z,990.9
2022-09-17T09:17:56.022Z,990.8
2022-09-17T09:18:57.163Z,990.8
2022-09-17T09:19:58.076Z,990.9
2022-09-17T09:20:59.701Z,990.8
2022-09-17T09:22:01.186Z,990.9
2022-09-17T09:23:02.021Z,990.9
2022-09-17T09:24:03.054Z,990.9
2022-09-17T09:25:04.082Z,990.8
2022-09-17T09:26:05.077Z,990.9
2022-09-17T09:27:07.100Z,990.9
2022-09-17T09:28:09.033Z,991
2022-09-17T09:29:10.075Z,991
2022-09-17T09:30:11.094Z,991
2022-09-17T09:31:12.399Z,991.1
2022-09-17T09:32:16.489Z,990.5
2022-09-17T09:33:16.053Z,990.9
2022-09-17T09:34:18.196Z,991.1
2022-09-17T09:35:20.015Z,991.1
2022-09-17T09:36:21.141Z,991.1
2022-09-17T09:37:22.294Z,991.2
2022-09-17T09:38:24.093Z,991.2
2022-09-17T09:39:26.095Z,991.3
2022-09-17T09:40:28.216Z,991.3
2022-09-17T09:41:30.072Z,991.3
2022-09-17T09:42:32.314Z,991.3
2022-09-17T09:43:52.911Z,991.3
2022-09-17T09:44:36.314Z,991.2
2022-09-17T09:45:38.113Z,991.3
2022-09-17T09:46:39.097Z,991.3
2022-09-17T09:47:40.053Z,991.3
2022-09-17T09:48:41.074Z,991.3
2022-09-17T09:49:42.206Z,991.3
2022-09-17T09:51:04.995Z,990.7
2022-09-17T09:51:45.246Z,991.1
2022-09-17T09:52:47.238Z,991.2
2022-09-17T09:53:48.133Z,991.2
2022-09-17T09:54:49.054Z,991.2
2022-09-17T09:55:50.005Z,991.2
2022-09-17T09:56:51.213Z,990.5
2022-09-17T09:57:53.174Z,991
2022-09-17T09:58:55.105Z,991.2
2022-09-17T09:59:57.113Z,991.2
2022-09-17T10:00:58.160Z,991.3
2022-09-17T10:02:00.395Z,991.2
2022-09-17T10:03:02.470Z,991.5
2022-09-17T10:04:04.154Z,991.4
2022-09-17T10:05:05.116Z,991.4
2022-09-17T10:06:06.154Z,991.4
2022-09-17T10:07:07.096Z,991.3
2022-09-17T10:08:08.291Z,991.4
2022-09-17T10:09:09.115Z,991.4
2022-09-17T10:10:10.153Z,991.4
2022-09-17T10:11:11.118Z,991.4
2022-09-17T10:12:13.128Z,991.4
2022-09-17T10:13:14.133Z,991.4
2022-09-17T10:14:15.065Z,991.4
2022-09-17T10:15:16.096Z,991.4
2022-09-17T10:16:17.264Z,991.5
2022-09-17T10:17:19.113Z,991.5
2022-09-17T10:18:20.063Z,991.5
2022-09-17T10:19:21.088Z,991.5
2022-09-17T10:20:23.184Z,991.5
2022-09-17T10:21:24.213Z,991.5
2022-09-17T10:22:26.102Z,991.4
2022-09-17T10:23:27.334Z,991.5
2022-09-17T10:24:28.121Z,991.4
2022-09-17T10:25:32.431Z,991.4
2022-09-17T10:26:32.062Z,991.4
2022-09-17T10:27:33.133Z,991.4
2022-09-17T10:28:34.101Z,991.2
2022-09-17T10:29:35.150Z,991.3
2022-09-17T10:30:37.144Z,991.4
2022-09-17T10:31:38.258Z,991.4
2022-09-17T10:32:40.157Z,991.5
2022-09-17T10:33:42.246Z,991.5
2022-09-17T10:34:44.293Z,991.5
2022-09-17T10:35:46.075Z,991.5
2022-09-17T10:36:47.234Z,991.4
2022-09-17T10:37:49.653Z,991.4
2022-09-17T10:38:51.187Z,991.4
2022-09-17T10:39:52.237Z,991.4
2022-09-17T10:40:54.178Z,991.4
2022-09-17T10:41:56.114Z,991.4
2022-09-17T10:42:58.182Z,991.4
2022-09-17T10:44:00.278Z,991.5
2022-09-17T10:45:02.218Z,991.5
2022-09-17T10:46:04.264Z,991.5
2022-09-17T10:47:05.204Z,991.5
2022-09-17T10:48:06.081Z,991.6
2022-09-17T10:49:07.072Z,991.4
2022-09-17T10:50:08.094Z,991.4
2022-09-17T10:51:09.073Z,991.4
2022-09-17T10:52:10.093Z,991.4
2022-09-17T10:53:11.094Z,991.3
2022-09-17T10:54:12.231Z,991.3
2022-09-17T10:55:14.174Z,991.3
2022-09-17T10:56:16.153Z,991.2
2022-09-17T10:57:18.100Z,991.3
2022-09-17T10:58:20.176Z,991.2
2022-09-17T10:59:22.116Z,991.3
2022-09-17T11:00:23.286Z,991.2
2022-09-17T11:01:25.205Z,991.2
2022-09-17T11:02:26.250Z,991.2
2022-09-17T11:03:27.433Z,991.2
2022-09-17T11:04:29.210Z,991.2
2022-09-17T11:05:30.135Z,991.2
2022-09-17T11:06:31.121Z,991.2
2022-09-17T11:07:32.124Z,991.1
2022-09-17T11:08:33.178Z,991.1
2022-09-17T11:09:34.141Z,991.1
2022-09-17T11:10:36.228Z,991.1
2022-09-17T11:11:38.275Z,991
2022-09-17T11:12:40.076Z,990.6
2022-09-17T11:13:41.352Z,990.9
2022-09-17T11:14:43.336Z,990.9
2022-09-17T11:15:47.655Z,990.9
2022-09-17T11:16:47.216Z,990.9
2022-09-17T11:17:48.154Z,990.9
2022-09-17T11:18:49.244Z,990.9
2022-09-17T11:19:51.124Z,990.8
2022-09-17T11:20:52.139Z,990.9
2022-09-17T11:21:53.410Z,990.9
2022-09-17T11:22:55.274Z,990.9
2022-09-17T11:23:57.173Z,990.9
2022-09-17T11:24:58.189Z,991
2022-09-17T11:26:00.737Z,990.9
2022-09-17T11:27:01.184Z,991
2022-09-17T11:28:03.181Z,990.9
2022-09-17T11:29:04.170Z,990.4
2022-09-17T11:30:05.399Z,990.7
2022-09-17T11:31:07.348Z,990.7
2022-09-17T11:32:09.360Z,990.9
2022-09-17T11:33:11.593Z,990.8
2022-09-17T11:34:13.157Z,990.8
2022-09-17T11:35:15.273Z,991
2022-09-17T11:36:17.293Z,990.9
2022-09-17T11:37:19.395Z,990.9
2022-09-17T11:38:21.255Z,990.9
2022-09-17T11:39:23.218Z,990.9
2022-09-17T11:40:24.502Z,990.8
2022-09-17T11:41:26.392Z,990.9
2022-09-17T11:42:28.577Z,990.9
2022-09-17T11:43:30.459Z,990.9
2022-09-17T11:44:32.485Z,990.9
2022-09-17T11:45:34.813Z,990.9
2022-09-17T11:46:36.453Z,990.9
2022-09-17T11:47:38.592Z,990.9
2022-09-17T11:48:40.348Z,990.9
2022-09-17T11:49:42.278Z,990.9
2022-09-17T11:50:44.246Z,990.9
2022-09-17T11:51:46.194Z,990.8
2022-09-17T11:52:48.137Z,990.7
2022-09-17T11:53:49.180Z,990.7
2022-09-17T11:54:50.255Z,990.7
2022-09-17T11:55:52.462Z,990.6
2022-09-17T11:56:54.244Z,990.8
2022-09-17T11:57:56.174Z,990.7
2022-09-17T11:58:58.260Z,990.7
2022-09-17T12:00:00.274Z,990.7
2022-09-17T12:01:02.614Z,990.7
2022-09-17T12:02:04.236Z,990.7
2022-09-17T12:03:06.271Z,990.7
2022-09-17T12:04:08.687Z,990.7
2022-09-17T12:05:10.283Z,990.7
2022-09-17T12:06:12.153Z,990.7
2022-09-17T12:07:13.213Z,990.7
2022-09-17T12:08:14.911Z,990.7
2022-09-17T12:09:16.327Z,990.7
2022-09-17T12:10:18.254Z,990.6
2022-09-17T12:11:21.124Z,990.6
2022-09-17T12:12:45.314Z,990.6
2022-09-17T12:13:23.133Z,990.3
2022-09-17T12:14:24.161Z,990.5
2022-09-17T12:15:25.166Z,990.6
2022-09-17T12:16:26.270Z,990.6
2022-09-17T12:17:28.177Z,990.6
2022-09-17T12:18:32.814Z,990.6
2022-09-17T12:19:31.170Z,990.7
2022-09-17T12:20:33.213Z,990.3
2022-09-17T12:21:35.233Z,990.5
2022-09-17T12:22:40.198Z,990.6
2022-09-17T12:23:38.246Z,990.6
2022-09-17T12:24:39.133Z,990.6
2022-09-17T12:25:40.236Z,990.6
2022-09-17T12:26:41.140Z,990.5
2022-09-17T12:27:42.200Z,990.5
2022-09-17T12:28:44.284Z,990.4
2022-09-17T12:29:46.174Z,990.4
2022-09-17T12:30:48.231Z,990.5
2022-09-17T12:31:50.349Z,990.5
2022-09-17T12:32:52.153Z,990.5
2022-09-17T12:33:54.308Z,990.5
2022-09-17T12:34:56.155Z,990.5
2022-09-17T12:36:04.281Z,990.5
2022-09-17T12:36:59.193Z,990.6
2022-09-17T12:38:01.420Z,990.5
2022-09-17T12:39:03.622Z,990.5
2022-09-17T12:40:05.282Z,990.6
2022-09-17T12:41:06.142Z,990.5
2022-09-17T12:42:07.378Z,990.4
2022-09-17T12:43:09.273Z,990.4
2022-09-17T12:44:10.376Z,990.4
2022-09-17T12:45:12.295Z,990.4
2022-09-17T12:46:14.237Z,990.3
2022-09-17T12:47:16.213Z,990.3
2022-09-17T12:48:18.256Z,990.3
2022-09-17T12:49:20.206Z,990.3
2022-09-17T12:50:21.233Z,990.4
2022-09-17T12:51:22.195Z,990.3
2022-09-17T12:52:23.173Z,990.3
2022-09-17T12:53:24.226Z,990.3
2022-09-17T12:54:25.248Z,990.3
2022-09-17T12:55:26.353Z,990.4
2022-09-17T12:56:28.174Z,990.3
2022-09-17T12:57:29.357Z,990.3
2022-09-17T12:58:31.249Z,990.2
2022-09-17T12:59:32.182Z,990.2
2022-09-17T13:00:33.336Z,990.2
2022-09-17T13:01:35.221Z,990.1
2022-09-17T13:02:36.153Z,990.2
2022-09-17T13:03:38.194Z,990.2
2022-09-17T13:04:59.813Z,990.1
2022-09-17T13:05:41.393Z,990.1
2022-09-17T13:06:43.266Z,989.9
2022-09-17T13:07:45.694Z,990
2022-09-17T13:08:47.336Z,990
2022-09-17T13:09:49.354Z,989.9
2022-09-17T13:10:51.198Z,989.8
2022-09-17T13:11:54.922Z,989.8
2022-09-17T13:12:55.457Z,989.8
2022-09-17T13:13:57.161Z,989.8
2022-09-17T13:14:58.295Z,989.8
2022-09-17T13:15:59.240Z,989.7
2022-09-17T13:17:00.179Z,989.8
2022-09-17T13:18:20.570Z,989.7
2022-09-17T13:19:15.925Z,989.7
2022-09-17T13:20:05.253Z,989.7
2022-09-17T13:21:07.199Z,989.6